sensor_id;sensor_type;location;lat;lon;timestamp;pressure;altitude;pressure_sealevel;temperature;humidity
69980;BME280;57318;56.232;43.944;2023-01-30T00:00:14;98567.97;;;-7.94;76.04
69980;BME280;57318;56.232;43.944;2023-01-30T00:02:40;98576.59;;;-7.93;75.84
69980;BME280;57318;56.232;43.944;2023-01-30T00:05:06;98563.63;;;-7.90;76.00
69980;BME280;57318;56.232;43.944;2023-01-30T00:07:31;98558.47;;;-7.90;75.76
69980;BME280;57318;56.232;43.944;2023-01-30T00:09:57;98564.50;;;-7.91;75.58
69980;BME280;57318;56.232;43.944;2023-01-30T00:12:23;98561.88;;;-7.88;75.69
69980;BME280;57318;56.232;43.944;2023-01-30T00:14:48;98551.63;;;-7.93;75.82
69980;BME280;57318;56.232;43.944;2023-01-30T00:17:14;98557.63;;;-7.92;75.81
69980;BME280;57318;56.232;43.944;2023-01-30T00:19:40;98548.22;;;-7.93;75.95
69980;BME280;57318;56.232;43.944;2023-01-30T00:22:05;98543.94;;;-7.94;75.92
69980;BME280;57318;56.232;43.944;2023-01-30T00:24:31;98531.94;;;-7.97;75.93
69980;BME280;57318;56.232;43.944;2023-01-30T00:26:56;98532.84;;;-7.98;76.03
69980;BME280;57318;56.232;43.944;2023-01-30T00:29:23;98531.97;;;-7.99;76.14
69980;BME280;57318;56.232;43.944;2023-01-30T00:31:48;98516.56;;;-8.02;75.92
69980;BME280;57318;56.232;43.944;2023-01-30T00:34:14;98516.56;;;-8.02;75.91
69980;BME280;57318;56.232;43.944;2023-01-30T00:36:39;98517.53;;;-8.06;76.00
69980;BME280;57318;56.232;43.944;2023-01-30T00:39:05;98513.22;;;-8.07;76.05
69980;BME280;57318;56.232;43.944;2023-01-30T00:41:30;98514.97;;;-8.07;76.10
69980;BME280;57318;56.232;43.944;2023-01-30T00:44:16;98493.53;;;-8.09;75.89
69980;BME280;57318;56.232;43.944;2023-01-30T00:47:00;98501.25;;;-8.08;75.94
69980;BME280;57318;56.232;43.944;2023-01-30T00:49:30;98505.53;;;-8.08;76.32
69980;BME280;57318;56.232;43.944;2023-01-30T00:51:55;98496.94;;;-8.07;76.25
69980;BME280;57318;56.232;43.944;2023-01-30T00:54:21;98518.41;;;-8.08;76.06
69980;BME280;57318;56.232;43.944;2023-01-30T00:56:47;98514.09;;;-8.06;75.99
69980;BME280;57318;56.232;43.944;2023-01-30T00:59:12;98518.34;;;-8.04;76.19
69980;BME280;57318;56.232;43.944;2023-01-30T01:01:38;98505.41;;;-8.02;76.13
69980;BME280;57318;56.232;43.944;2023-01-30T01:04:05;98499.34;;;-8.00;75.68
69980;BME280;57318;56.232;43.944;2023-01-30T01:06:31;98506.19;;;-7.99;75.82
69980;BME280;57318;56.232;43.944;2023-01-30T01:08:57;98513.00;;;-7.94;75.78
69980;BME280;57318;56.232;43.944;2023-01-30T01:11:22;98502.69;;;-7.94;75.43
69980;BME280;57318;56.232;43.944;2023-01-30T01:13:53;98499.22;;;-7.93;75.31
69980;BME280;57318;56.232;43.944;2023-01-30T01:16:19;98500.91;;;-7.92;75.43
69980;BME280;57318;56.232;43.944;2023-01-30T01:18:46;98500.00;;;-7.90;75.26
69980;BME280;57318;56.232;43.944;2023-01-30T01:21:11;98494.84;;;-7.90;75.32
69980;BME280;57318;56.232;43.944;2023-01-30T01:23:38;98488.84;;;-7.90;75.18
69980;BME280;57318;56.232;43.944;2023-01-30T01:26:04;98482.03;;;-7.93;75.09
69980;BME280;57318;56.232;43.944;2023-01-30T01:28:30;98475.19;;;-7.95;75.36
69980;BME280;57318;56.232;43.944;2023-01-30T01:30:56;98477.78;;;-7.97;75.24
69980;BME280;57318;56.232;43.944;2023-01-30T01:33:25;98485.56;;;-7.99;75.37
69980;BME280;57318;56.232;43.944;2023-01-30T01:35:55;98467.50;;;-7.99;75.32
69980;BME280;57318;56.232;43.944;2023-01-30T01:38:20;98471.81;;;-7.98;75.42
69980;BME280;57318;56.232;43.944;2023-01-30T01:40:46;98478.66;;;-7.96;75.26
69980;BME280;57318;56.232;43.944;2023-01-30T01:43:30;98481.25;;;-7.96;75.27
69980;BME280;57318;56.232;43.944;2023-01-30T01:46:01;98476.09;;;-7.96;75.30
69980;BME280;57318;56.232;43.944;2023-01-30T01:48:33;98466.59;;;-7.94;75.17
69980;BME280;57318;56.232;43.944;2023-01-30T01:53:41;98460.56;;;-7.93;75.35
69980;BME280;57318;56.232;43.944;2023-01-30T01:56:09;98466.59;;;-7.94;75.17
69980;BME280;57318;56.232;43.944;2023-01-30T01:59:00;98457.94;;;-7.92;75.11
69980;BME280;57318;56.232;43.944;2023-01-30T02:01:28;98455.41;;;-7.93;74.92
69980;BME280;57318;56.232;43.944;2023-01-30T02:03:58;98446.00;;;-7.96;75.14
69980;BME280;57318;56.232;43.944;2023-01-30T02:06:26;98451.13;;;-7.94;75.02
69980;BME280;57318;56.232;43.944;2023-01-30T02:08:53;98445.97;;;-7.94;75.26
69980;BME280;57318;56.232;43.944;2023-01-30T02:11:32;98436.53;;;-7.97;75.38
69980;BME280;57318;56.232;43.944;2023-01-30T02:13:59;98434.88;;;-7.98;75.10
69980;BME280;57318;56.232;43.944;2023-01-30T02:16:26;98440.88;;;-7.98;75.16
69980;BME280;57318;56.232;43.944;2023-01-30T02:18:53;98441.72;;;-7.99;75.20
69980;BME280;57318;56.232;43.944;2023-01-30T02:38:47;98420.31;;;-8.01;75.58
69980;BME280;57318;56.232;43.944;2023-01-30T02:41:28;98416.81;;;-7.98;75.68
69980;BME280;57318;56.232;43.944;2023-01-30T02:44:04;98411.63;;;-7.96;75.50
69980;BME280;57318;56.232;43.944;2023-01-30T02:49:35;98404.69;;;-7.94;75.13
69980;BME280;57318;56.232;43.944;2023-01-30T02:52:04;98417.59;;;-7.94;75.25
69980;BME280;57318;56.232;43.944;2023-01-30T02:54:31;98409.91;;;-7.96;75.24
69980;BME280;57318;56.232;43.944;2023-01-30T02:56:57;98408.19;;;-7.97;75.24
69980;BME280;57318;56.232;43.944;2023-01-30T02:59:36;98409.91;;;-7.96;75.48
69980;BME280;57318;56.232;43.944;2023-01-30T03:12:39;98384.97;;;-7.97;75.33
69980;BME280;57318;56.232;43.944;2023-01-30T03:17:46;98391.91;;;-7.99;75.55
69980;BME280;57318;56.232;43.944;2023-01-30T03:20:13;98394.53;;;-8.01;75.38
69980;BME280;57318;56.232;43.944;2023-01-30T03:22:39;98387.69;;;-8.03;75.47
69980;BME280;57318;56.232;43.944;2023-01-30T03:25:05;98377.44;;;-8.05;75.63
69980;BME280;57318;56.232;43.944;2023-01-30T03:27:33;98379.13;;;-8.04;75.48
69980;BME280;57318;56.232;43.944;2023-01-30T03:29:59;98377.44;;;-8.05;75.94
69980;BME280;57318;56.232;43.944;2023-01-30T03:32:24;98374.81;;;-8.03;75.59
69980;BME280;57318;56.232;43.944;2023-01-30T03:34:50;98372.19;;;-8.02;75.65
69980;BME280;57318;56.232;43.944;2023-01-30T03:37:16;98369.63;;;-8.02;75.58
69980;BME280;57318;56.232;43.944;2023-01-30T03:39:42;98379.91;;;-8.00;75.50
69980;BME280;57318;56.232;43.944;2023-01-30T03:42:08;98375.66;;;-8.03;75.67
69980;BME280;57318;56.232;43.944;2023-01-30T03:44:33;98383.41;;;-8.03;75.67
69980;BME280;57318;56.232;43.944;2023-01-30T03:46:59;98371.38;;;-8.04;75.63
69980;BME280;57318;56.232;43.944;2023-01-30T03:49:24;98379.94;;;-8.02;75.64
69980;BME280;57318;56.232;43.944;2023-01-30T03:51:50;98376.50;;;-8.02;75.46
69980;BME280;57318;56.232;43.944;2023-01-30T03:54:16;98375.63;;;-8.01;75.55
69980;BME280;57318;56.232;43.944;2023-01-30T03:56:41;98362.78;;;-8.03;75.56
69980;BME280;57318;56.232;43.944;2023-01-30T03:59:07;98369.53;;;-7.99;75.64
69980;BME280;57318;56.232;43.944;2023-01-30T04:01:33;98368.75;;;-8.01;75.71
69980;BME280;57318;56.232;43.944;2023-01-30T04:03:58;98371.25;;;-7.98;75.60
69980;BME280;57318;56.232;43.944;2023-01-30T04:06:25;98366.06;;;-7.96;75.69
69980;BME280;57318;56.232;43.944;2023-01-30T04:08:51;98360.03;;;-7.95;75.35
69980;BME280;57318;56.232;43.944;2023-01-30T04:11:16;98353.22;;;-7.98;75.70
69980;BME280;57318;56.232;43.944;2023-01-30T04:13:42;98347.16;;;-7.95;75.88
69980;BME280;57318;56.232;43.944;2023-01-30T04:16:17;98350.59;;;-7.96;76.01
69980;BME280;57318;56.232;43.944;2023-01-30T04:18:43;98336.00;;;-7.97;76.13
69980;BME280;57318;56.232;43.944;2023-01-30T04:21:09;98353.13;;;-7.94;75.99
69980;BME280;57318;56.232;43.944;2023-01-30T04:23:35;98353.13;;;-7.94;76.07
69980;BME280;57318;56.232;43.944;2023-01-30T04:26:00;98352.31;;;-7.95;76.13
69980;BME280;57318;56.232;43.944;2023-01-30T04:28:25;98353.97;;;-7.94;76.23
69980;BME280;57318;56.232;43.944;2023-01-30T04:30:51;98355.69;;;-7.93;76.18
69980;BME280;57318;56.232;43.944;2023-01-30T04:33:17;98352.22;;;-7.92;76.23
69980;BME280;57318;56.232;43.944;2023-01-30T04:35:50;98347.91;;;-7.91;76.20
69980;BME280;57318;56.232;43.944;2023-01-30T04:38:15;98338.41;;;-7.89;76.00
69980;BME280;57318;56.232;43.944;2023-01-30T04:40:41;98339.22;;;-7.87;76.34
69980;BME280;57318;56.232;43.944;2023-01-30T04:43:06;98339.22;;;-7.87;76.16
69980;BME280;57318;56.232;43.944;2023-01-30T04:45:31;98337.53;;;-7.88;76.33
69980;BME280;57318;56.232;43.944;2023-01-30T04:47:58;98339.22;;;-7.87;76.35
69980;BME280;57318;56.232;43.944;2023-01-30T04:50:23;98339.19;;;-7.86;76.36
69980;BME280;57318;56.232;43.944;2023-01-30T04:52:49;98339.19;;;-7.86;76.41
69980;BME280;57318;56.232;43.944;2023-01-30T04:55:15;98331.47;;;-7.86;76.51
69980;BME280;57318;56.232;43.944;2023-01-30T04:57:40;98330.56;;;-7.85;76.51
69980;BME280;57318;56.232;43.944;2023-01-30T05:00:06;98329.72;;;-7.85;76.50
69980;BME280;57318;56.232;43.944;2023-01-30T05:02:31;98319.34;;;-7.82;76.63
69980;BME280;57318;56.232;43.944;2023-01-30T05:04:56;98325.28;;;-7.80;76.73
69980;BME280;57318;56.232;43.944;2023-01-30T05:07:22;98327.84;;;-7.78;76.50
69980;BME280;57318;56.232;43.944;2023-01-30T05:09:47;98322.72;;;-7.80;76.64
69980;BME280;57318;56.232;43.944;2023-01-30T05:12:13;98326.19;;;-7.81;76.78
69980;BME280;57318;56.232;43.944;2023-01-30T05:14:38;98326.97;;;-7.77;76.72
69980;BME280;57318;56.232;43.944;2023-01-30T05:17:05;98328.66;;;-7.76;76.71
69980;BME280;57318;56.232;43.944;2023-01-30T05:19:30;98324.34;;;-7.76;76.63
69980;BME280;57318;56.232;43.944;2023-01-30T05:21:56;98323.50;;;-7.76;76.62
69980;BME280;57318;56.232;43.944;2023-01-30T05:24:21;98319.16;;;-7.74;76.54
69980;BME280;57318;56.232;43.944;2023-01-30T05:26:46;98327.72;;;-7.74;76.41
69980;BME280;57318;56.232;43.944;2023-01-30T05:29:12;98314.84;;;-7.74;76.52
69980;BME280;57318;56.232;43.944;2023-01-30T05:31:37;98305.31;;;-7.72;76.47
69980;BME280;57318;56.232;43.944;2023-01-30T05:34:03;98297.59;;;-7.72;76.70
69980;BME280;57318;56.232;43.944;2023-01-30T05:36:28;98314.78;;;-7.72;76.60
69980;BME280;57318;56.232;43.944;2023-01-30T05:38:53;98313.09;;;-7.73;76.88
69980;BME280;57318;56.232;43.944;2023-01-30T05:41:19;98304.38;;;-7.68;76.75
69980;BME280;57318;56.232;43.944;2023-01-30T05:43:47;98318.94;;;-7.65;76.38
69980;BME280;57318;56.232;43.944;2023-01-30T05:46:13;98300.75;;;-7.60;76.52
69980;BME280;57318;56.232;43.944;2023-01-30T05:48:38;98308.41;;;-7.56;76.58
69980;BME280;57318;56.232;43.944;2023-01-30T05:51:04;98312.59;;;-7.53;76.02
69980;BME280;57318;56.232;43.944;2023-01-30T05:53:30;98308.25;;;-7.50;75.52
69980;BME280;57318;56.232;43.944;2023-01-30T05:55:56;98313.31;;;-7.48;75.47
69980;BME280;57318;56.232;43.944;2023-01-30T05:58:22;98307.22;;;-7.44;75.33
69980;BME280;57318;56.232;43.944;2023-01-30T06:00:47;98307.13;;;-7.41;75.17
69980;BME280;57318;56.232;43.944;2023-01-30T06:03:13;98313.94;;;-7.37;75.29
69980;BME280;57318;56.232;43.944;2023-01-30T06:05:38;98306.94;;;-7.33;75.29
69980;BME280;57318;56.232;43.944;2023-01-30T06:08:04;98309.44;;;-7.30;75.07
69980;BME280;57318;56.232;43.944;2023-01-30T06:10:29;98294.72;;;-7.27;75.04
69980;BME280;57318;56.232;43.944;2023-01-30T06:12:54;98295.50;;;-7.23;74.59
69980;BME280;57318;56.232;43.944;2023-01-30T06:15:20;98298.88;;;-7.21;74.67
69980;BME280;57318;56.232;43.944;2023-01-30T06:17:45;98294.50;;;-7.19;74.81
69980;BME280;57318;56.232;43.944;2023-01-30T06:20:11;98291.81;;;-7.14;74.60
69980;BME280;57318;56.232;43.944;2023-01-30T06:22:36;98292.53;;;-7.09;74.52
69980;BME280;57318;56.232;43.944;2023-01-30T06:25:02;98295.91;;;-7.05;74.44
69980;BME280;57318;56.232;43.944;2023-01-30T06:27:28;98288.91;;;-7.02;73.98
69980;BME280;57318;56.232;43.944;2023-01-30T06:29:53;98274.19;;;-7.00;74.24
69980;BME280;57318;56.232;43.944;2023-01-30T06:32:19;98289.56;;;-6.95;74.04
69980;BME280;57318;56.232;43.944;2023-01-30T06:34:44;98269.00;;;-6.98;73.91
69980;BME280;57318;56.232;43.944;2023-01-30T06:37:09;98273.25;;;-6.96;73.93
69980;BME280;57318;56.232;43.944;2023-01-30T06:39:35;98265.41;;;-6.93;74.09
69980;BME280;57318;56.232;43.944;2023-01-30T06:42:00;98273.88;;;-6.87;74.00
69980;BME280;57318;56.232;43.944;2023-01-30T06:44:25;98260.03;;;-6.85;73.78
69980;BME280;57318;56.232;43.944;2023-01-30T06:46:51;98260.69;;;-6.78;73.55
69980;BME280;57318;56.232;43.944;2023-01-30T06:49:16;98271.78;;;-6.75;73.58
69980;BME280;57318;56.232;43.944;2023-01-30T06:51:42;98275.13;;;-6.71;73.29
69980;BME280;57318;56.232;43.944;2023-01-30T06:54:07;98267.16;;;-6.65;73.07
69980;BME280;57318;56.232;43.944;2023-01-30T06:56:33;98270.59;;;-6.63;73.00
69980;BME280;57318;56.232;43.944;2023-01-30T06:58:58;98271.25;;;-6.56;72.90
69980;BME280;57318;56.232;43.944;2023-01-30T07:01:23;98275.47;;;-6.54;72.68
69980;BME280;57318;56.232;43.944;2023-01-30T07:03:49;98265.06;;;-6.50;72.89
69980;BME280;57318;56.232;43.944;2023-01-30T07:06:14;98264.97;;;-6.47;72.62
69980;BME280;57318;56.232;43.944;2023-01-30T07:08:39;98265.75;;;-6.45;72.47
69980;BME280;57318;56.232;43.944;2023-01-30T07:11:05;98263.31;;;-6.50;72.50
69980;BME280;57318;56.232;43.944;2023-01-30T07:13:31;98249.56;;;-6.50;72.30
69980;BME280;57318;56.232;43.944;2023-01-30T07:15:56;98255.50;;;-6.48;72.72
69980;BME280;57318;56.232;43.944;2023-01-30T07:18:21;98256.38;;;-6.49;72.55
69980;BME280;57318;56.232;43.944;2023-01-30T07:20:47;98254.63;;;-6.47;72.56
69980;BME280;57318;56.232;43.944;2023-01-30T07:23:13;98246.78;;;-6.44;72.57
69980;BME280;57318;56.232;43.944;2023-01-30T07:25:38;98253.44;;;-6.37;72.41
69980;BME280;57318;56.232;43.944;2023-01-30T07:28:03;98248.88;;;-6.29;72.09
69980;BME280;57318;56.232;43.944;2023-01-30T07:30:30;98243.56;;;-6.24;72.01
69980;BME280;57318;56.232;43.944;2023-01-30T07:32:57;98234.63;;;-6.14;71.76
69980;BME280;57318;56.232;43.944;2023-01-30T07:35:23;98234.28;;;-6.03;71.42
69980;BME280;57318;56.232;43.944;2023-01-30T07:37:49;98234.09;;;-5.97;70.96
69980;BME280;57318;56.232;43.944;2023-01-30T07:40:15;98229.53;;;-5.90;70.43
69980;BME280;57318;56.232;43.944;2023-01-30T07:42:41;98236.25;;;-5.85;70.44
69980;BME280;57318;56.232;43.944;2023-01-30T07:45:06;98242.94;;;-5.79;70.13
69980;BME280;57318;56.232;43.944;2023-01-30T07:47:33;98238.41;;;-5.72;70.13
69980;BME280;57318;56.232;43.944;2023-01-30T07:49:58;98240.84;;;-5.68;69.64
69980;BME280;57318;56.232;43.944;2023-01-30T07:52:24;98232.91;;;-5.63;69.48
69980;BME280;57318;56.232;43.944;2023-01-30T07:54:49;98229.41;;;-5.60;69.19
69980;BME280;57318;56.232;43.944;2023-01-30T07:57:14;98229.25;;;-5.56;69.15
69980;BME280;57318;56.232;43.944;2023-01-30T07:59:40;98230.81;;;-5.52;69.17
69980;BME280;57318;56.232;43.944;2023-01-30T08:02:07;98228.94;;;-5.47;68.96
69980;BME280;57318;56.232;43.944;2023-01-30T08:04:33;98228.72;;;-5.40;68.82
69980;BME280;57318;56.232;43.944;2023-01-30T08:06:58;98224.16;;;-5.34;68.48
69980;BME280;57318;56.232;43.944;2023-01-30T08:09:24;98214.22;;;-5.21;68.10
69980;BME280;57318;56.232;43.944;2023-01-30T08:11:49;98207.00;;;-5.13;67.30
69980;BME280;57318;56.232;43.944;2023-01-30T08:14:14;98203.41;;;-5.09;66.69
69980;BME280;57318;56.232;43.944;2023-01-30T08:16:40;98210.28;;;-5.08;66.48
69980;BME280;57318;56.232;43.944;2023-01-30T08:19:05;98195.63;;;-5.09;66.69
69980;BME280;57318;56.232;43.944;2023-01-30T08:21:31;98197.34;;;-5.08;66.12
69980;BME280;57318;56.232;43.944;2023-01-30T08:23:56;98198.91;;;-5.03;66.49
69980;BME280;57318;56.232;43.944;2023-01-30T08:26:22;98198.72;;;-4.99;66.06
69980;BME280;57318;56.232;43.944;2023-01-30T08:28:47;98192.50;;;-4.93;65.73
69980;BME280;57318;56.232;43.944;2023-01-30T08:31:13;98192.25;;;-4.87;65.71
69980;BME280;57318;56.232;43.944;2023-01-30T08:33:39;98186.84;;;-4.81;65.41
69980;BME280;57318;56.232;43.944;2023-01-30T08:36:04;98172.84;;;-4.77;65.38
69980;BME280;57318;56.232;43.944;2023-01-30T08:38:31;98177.91;;;-4.74;65.15
69980;BME280;57318;56.232;43.944;2023-01-30T08:40:56;98176.19;;;-4.73;65.15
69980;BME280;57318;56.232;43.944;2023-01-30T08:43:22;98173.78;;;-4.78;65.22
69980;BME280;57318;56.232;43.944;2023-01-30T08:45:48;98169.53;;;-4.80;65.20
69980;BME280;57318;56.232;43.944;2023-01-30T08:48:13;98163.34;;;-4.76;65.23
69980;BME280;57318;56.232;43.944;2023-01-30T08:50:39;98157.19;;;-4.74;65.64
69980;BME280;57318;56.232;43.944;2023-01-30T08:53:05;98149.34;;;-4.72;65.35
69980;BME280;57318;56.232;43.944;2023-01-30T08:55:31;98160.44;;;-4.68;65.53
69980;BME280;57318;56.232;43.944;2023-01-30T08:57:56;98163.78;;;-4.65;64.88
69980;BME280;57318;56.232;43.944;2023-01-30T09:00:22;98146.47;;;-4.64;65.22
69980;BME280;57318;56.232;43.944;2023-01-30T09:02:47;98142.84;;;-4.60;65.45
69980;BME280;57318;56.232;43.944;2023-01-30T09:05:12;98142.84;;;-4.60;65.21
69980;BME280;57318;56.232;43.944;2023-01-30T09:07:38;98144.28;;;-4.53;65.21
69980;BME280;57318;56.232;43.944;2023-01-30T09:10:03;98136.56;;;-4.55;65.05
69980;BME280;57318;56.232;43.944;2023-01-30T09:12:29;98126.81;;;-4.48;65.28
69980;BME280;57318;56.232;43.944;2023-01-30T09:14:54;98133.56;;;-4.44;65.03
69980;BME280;57318;56.232;43.944;2023-01-30T09:17:22;98130.25;;;-4.47;64.70
69980;BME280;57318;56.232;43.944;2023-01-30T09:19:48;98136.22;;;-4.45;64.60
69980;BME280;57318;56.232;43.944;2023-01-30T09:22:13;98118.00;;;-4.44;65.07
69980;BME280;57318;56.232;43.944;2023-01-30T09:24:38;98118.97;;;-4.46;65.30
69980;BME280;57318;56.232;43.944;2023-01-30T09:27:04;98112.94;;;-4.47;65.11
69980;BME280;57318;56.232;43.944;2023-01-30T09:29:29;98120.06;;;-4.52;65.17
69980;BME280;57318;56.232;43.944;2023-01-30T09:31:55;98114.41;;;-4.62;65.69
69980;BME280;57318;56.232;43.944;2023-01-30T09:34:21;98126.50;;;-4.62;65.78
69980;BME280;57318;56.232;43.944;2023-01-30T09:36:51;98115.38;;;-4.64;65.59
69980;BME280;57318;56.232;43.944;2023-01-30T09:39:17;98115.13;;;-4.58;65.74
69980;BME280;57318;56.232;43.944;2023-01-30T09:44:17;98103.28;;;-4.65;65.58
69980;BME280;57318;56.232;43.944;2023-01-30T09:54:30;98104.59;;;-4.76;65.93
69980;BME280;57318;56.232;43.944;2023-01-30T09:57:19;98085.50;;;-4.73;66.35
69980;BME280;57318;56.232;43.944;2023-01-30T10:04:46;98075.19;;;-4.75;65.99
69980;BME280;57318;56.232;43.944;2023-01-30T10:07:15;98070.66;;;-4.69;66.72
69980;BME280;57318;56.232;43.944;2023-01-30T10:17:27;98061.81;;;-4.65;66.44
69980;BME280;57318;56.232;43.944;2023-01-30T10:27:51;98059.28;;;-4.45;65.52
69980;BME280;57318;56.232;43.944;2023-01-30T10:30:19;98058.44;;;-4.45;65.96
69980;BME280;57318;56.232;43.944;2023-01-30T10:33:01;98053.31;;;-4.47;65.92
69980;BME280;57318;56.232;43.944;2023-01-30T10:35:30;98052.41;;;-4.46;65.66
69980;BME280;57318;56.232;43.944;2023-01-30T10:40:51;98037.09;;;-4.52;65.84
69980;BME280;57318;56.232;43.944;2023-01-30T10:43:23;98048.19;;;-4.48;66.12
69980;BME280;57318;56.232;43.944;2023-01-30T10:50:58;98054.75;;;-4.40;66.18
69980;BME280;57318;56.232;43.944;2023-01-30T11:06:26;98006.75;;;-4.29;65.90
69980;BME280;57318;56.232;43.944;2023-01-30T11:08:53;98005.09;;;-4.30;65.45
69980;BME280;57318;56.232;43.944;2023-01-30T11:11:29;98013.97;;;-4.36;65.92
69980;BME280;57318;56.232;43.944;2023-01-30T11:16:27;98000.47;;;-4.24;66.17
69980;BME280;57318;56.232;43.944;2023-01-30T11:18:52;98010.66;;;-4.19;65.78
69980;BME280;57318;56.232;43.944;2023-01-30T11:21:24;98005.84;;;-4.28;65.74
69980;BME280;57318;56.232;43.944;2023-01-30T11:23:50;98003.25;;;-4.28;66.06
69980;BME280;57318;56.232;43.944;2023-01-30T11:26:19;98018.13;;;-4.32;66.05
69980;BME280;57318;56.232;43.944;2023-01-30T11:28:45;98007.88;;;-4.35;66.08
69980;BME280;57318;56.232;43.944;2023-01-30T11:34:10;97993.03;;;-4.31;66.51
69980;BME280;57318;56.232;43.944;2023-01-30T11:36:36;97988.66;;;-4.31;66.31
69980;BME280;57318;56.232;43.944;2023-01-30T11:39:04;97988.81;;;-4.34;66.01
69980;BME280;57318;56.232;43.944;2023-01-30T11:44:22;97988.09;;;-4.38;66.70
69980;BME280;57318;56.232;43.944;2023-01-30T11:46:49;97997.56;;;-4.37;66.63
69980;BME280;57318;56.232;43.944;2023-01-30T11:49:15;97987.97;;;-4.35;66.64
69980;BME280;57318;56.232;43.944;2023-01-30T11:51:44;97988.59;;;-4.29;66.53
69980;BME280;57318;56.232;43.944;2023-01-30T11:54:12;97992.00;;;-4.27;66.12
69980;BME280;57318;56.232;43.944;2023-01-30T11:56:39;97968.53;;;-4.24;66.15
69980;BME280;57318;56.232;43.944;2023-01-30T12:01:50;97973.44;;;-4.18;66.17
69980;BME280;57318;56.232;43.944;2023-01-30T12:04:17;97955.41;;;-4.21;65.84
69980;BME280;57318;56.232;43.944;2023-01-30T12:06:44;97964.72;;;-4.17;65.94
69980;BME280;57318;56.232;43.944;2023-01-30T12:09:30;97957.94;;;-4.20;65.65
69980;BME280;57318;56.232;43.944;2023-01-30T12:11:57;97959.69;;;-4.20;65.47
69980;BME280;57318;56.232;43.944;2023-01-30T12:20:16;97949.94;;;-4.15;65.37
69980;BME280;57318;56.232;43.944;2023-01-30T12:25:43;97926.88;;;-4.21;65.48
69980;BME280;57318;56.232;43.944;2023-01-30T12:28:23;97930.38;;;-4.22;65.37
69980;BME280;57318;56.232;43.944;2023-01-30T12:30:53;97922.03;;;-4.29;65.66
69980;BME280;57318;56.232;43.944;2023-01-30T12:33:21;97913.34;;;-4.28;65.85
69980;BME280;57318;56.232;43.944;2023-01-30T12:36:01;97927.09;;;-4.26;66.07
69980;BME280;57318;56.232;43.944;2023-01-30T12:44:14;97922.19;;;-4.32;66.21
69980;BME280;57318;56.232;43.944;2023-01-30T12:54:20;97911.63;;;-4.48;66.68
69980;BME280;57318;56.232;43.944;2023-01-30T13:04:43;97902.81;;;-4.64;67.17
69980;BME280;57318;56.232;43.944;2023-01-30T13:10:06;97903.03;;;-4.69;67.39
69980;BME280;57318;56.232;43.944;2023-01-30T13:15:22;97893.66;;;-4.72;67.86
69980;BME280;57318;56.232;43.944;2023-01-30T13:26:05;97892.09;;;-4.76;68.33
69980;BME280;57318;56.232;43.944;2023-01-30T13:28:33;97888.59;;;-4.75;68.66
69980;BME280;57318;56.232;43.944;2023-01-30T13:31:00;97887.75;;;-4.75;68.36
69980;BME280;57318;56.232;43.944;2023-01-30T13:33:29;97878.38;;;-4.78;69.02
69980;BME280;57318;56.232;43.944;2023-01-30T13:36:01;97875.91;;;-4.81;69.62
69980;BME280;57318;56.232;43.944;2023-01-30T13:38:28;97870.13;;;-4.87;70.08
69980;BME280;57318;56.232;43.944;2023-01-30T13:40:56;97858.34;;;-4.95;71.07
69980;BME280;57318;56.232;43.944;2023-01-30T13:43:37;97867.97;;;-4.98;71.96
69980;BME280;57318;56.232;43.944;2023-01-30T13:46:08;97861.28;;;-5.02;72.12
69980;BME280;57318;56.232;43.944;2023-01-30T13:53:31;97859.31;;;-5.18;73.80
69980;BME280;57318;56.232;43.944;2023-01-30T14:02:06;97854.59;;;-5.29;76.32
69980;BME280;57318;56.232;43.944;2023-01-30T14:09:36;97843.84;;;-5.40;78.23
69980;BME280;57318;56.232;43.944;2023-01-30T14:12:04;97845.66;;;-5.42;78.94
69980;BME280;57318;56.232;43.944;2023-01-30T14:14:33;97846.66;;;-5.46;79.65
69980;BME280;57318;56.232;43.944;2023-01-30T14:17:09;97838.13;;;-5.48;79.90
69980;BME280;57318;56.232;43.944;2023-01-30T14:19:39;97831.38;;;-5.52;80.46
69980;BME280;57318;56.232;43.944;2023-01-30T14:27:31;97828.28;;;-5.60;81.59
69980;BME280;57318;56.232;43.944;2023-01-30T14:29:57;97833.56;;;-5.64;81.33
69980;BME280;57318;56.232;43.944;2023-01-30T14:50:51;97815.84;;;-5.73;82.33
69980;BME280;57318;56.232;43.944;2023-01-30T14:53:34;97825.28;;;-5.72;82.30
69980;BME280;57318;56.232;43.944;2023-01-30T14:56:02;97819.31;;;-5.74;82.24
69980;BME280;57318;56.232;43.944;2023-01-30T14:58:28;97816.72;;;-5.74;82.37
69980;BME280;57318;56.232;43.944;2023-01-30T15:00:57;97815.84;;;-5.73;82.53
69980;BME280;57318;56.232;43.944;2023-01-30T15:03:23;97821.84;;;-5.72;82.45
69980;BME280;57318;56.232;43.944;2023-01-30T15:05:48;97816.72;;;-5.74;82.60
69980;BME280;57318;56.232;43.944;2023-01-30T15:08:15;97816.72;;;-5.74;82.41
69980;BME280;57318;56.232;43.944;2023-01-30T15:18:40;97805.78;;;-5.81;82.82
69980;BME280;57318;56.232;43.944;2023-01-30T15:26:14;97804.03;;;-5.80;83.13
69980;BME280;57318;56.232;43.944;2023-01-30T15:28:50;97801.50;;;-5.82;83.02
69980;BME280;57318;56.232;43.944;2023-01-30T15:31:18;97791.16;;;-5.82;82.89
69980;BME280;57318;56.232;43.944;2023-01-30T15:33:45;97802.44;;;-5.83;82.79
69980;BME280;57318;56.232;43.944;2023-01-30T15:36:18;97802.44;;;-5.83;82.49
69980;BME280;57318;56.232;43.944;2023-01-30T15:38:43;97799.78;;;-5.81;82.33
69980;BME280;57318;56.232;43.944;2023-01-30T15:41:09;97803.09;;;-5.77;82.16
69980;BME280;57318;56.232;43.944;2023-01-30T15:51:15;97779.75;;;-5.76;80.58
69980;BME280;57318;56.232;43.944;2023-01-30T15:53:44;97784.84;;;-5.74;79.96
69980;BME280;57318;56.232;43.944;2023-01-30T15:56:10;97775.28;;;-5.72;79.75
69980;BME280;57318;56.232;43.944;2023-01-30T15:58:41;97777.72;;;-5.69;79.13
69980;BME280;57318;56.232;43.944;2023-01-30T16:01:07;97779.44;;;-5.68;78.53
69980;BME280;57318;56.232;43.944;2023-01-30T16:03:34;97775.81;;;-5.64;78.68
69980;BME280;57318;56.232;43.944;2023-01-30T16:06:04;97781.75;;;-5.62;78.20
69980;BME280;57318;56.232;43.944;2023-01-30T16:08:31;97773.09;;;-5.61;77.77
69980;BME280;57318;56.232;43.944;2023-01-30T16:10:57;97779.06;;;-5.59;77.81
69980;BME280;57318;56.232;43.944;2023-01-30T16:13:24;97767.75;;;-5.56;77.44